createdAt,value
2019-03-11T00:00:35.933Z,0.60
2019-03-11T00:03:05.149Z,0.10
2019-03-11T00:05:33.860Z,0.47
2019-03-11T00:08:02.587Z,0.10
2019-03-11T00:10:31.405Z,0.10
2019-03-11T00:13:00.169Z,0.13
2019-03-11T00:15:29.021Z,0.30
2019-03-11T00:17:57.701Z,0.20
2019-03-11T00:20:26.426Z,0.30
2019-03-11T00:22:55.151Z,0.40
2019-03-11T00:25:23.889Z,0.20
2019-03-11T00:27:52.613Z,0.10
2019-03-11T00:30:21.333Z,0.30
2019-03-11T00:32:50.084Z,0.10
2019-03-11T00:35:18.850Z,0.30
2019-03-11T00:37:47.591Z,0.20
2019-03-11T00:40:16.925Z,0.20
2019-03-11T00:42:45.654Z,0.10
2019-03-11T00:45:17.068Z,0.40
2019-03-11T00:47:45.817Z,0.20
2019-03-11T00:50:14.932Z,0.20
2019-03-11T00:52:43.738Z,0.57
2019-03-11T00:55:13.413Z,0.27
2019-03-11T00:57:42.131Z,0.30
2019-03-11T01:00:28.541Z,0.27
2019-03-11T01:02:57.520Z,0.40
2019-03-11T01:05:26.208Z,0.30
2019-03-11T01:07:54.956Z,0.13
2019-03-11T01:10:23.985Z,0.40
2019-03-11T01:12:52.837Z,0.20
2019-03-11T01:15:21.578Z,0.37
2019-03-11T01:17:50.305Z,0.20
2019-03-11T01:20:19.027Z,0.50
2019-03-11T01:22:47.827Z,0.30
2019-03-11T01:25:16.551Z,0.37
2019-03-11T01:27:45.265Z,0.40
2019-03-11T01:30:17.545Z,0.40
2019-03-11T01:32:46.385Z,0.40
2019-03-11T01:35:15.098Z,0.57
2019-03-11T01:37:43.861Z,0.23
2019-03-11T01:40:17.543Z,0.40
2019-03-11T01:42:46.265Z,0.40
2019-03-11T01:45:19.084Z,0.30
2019-03-11T01:47:47.864Z,0.50
2019-03-11T01:50:17.344Z,1.00
2019-03-11T01:52:46.096Z,0.30
2019-03-11T01:55:15.023Z,0.60
2019-03-11T01:57:43.740Z,0.40
2019-03-11T02:00:15.488Z,0.27
2019-03-11T02:02:44.224Z,0.23
2019-03-11T02:05:13.226Z,0.37
2019-03-11T02:07:42.044Z,0.43
2019-03-11T02:10:13.333Z,0.60
2019-03-11T02:12:42.057Z,0.40
2019-03-11T02:15:13.698Z,0.30
2019-03-11T02:17:42.423Z,0.40
2019-03-11T02:20:13.641Z,0.40
2019-03-11T02:22:42.397Z,0.50
2019-03-11T02:25:11.422Z,0.50
2019-03-11T02:27:40.177Z,0.30
2019-03-11T02:30:11.793Z,0.37
2019-03-11T02:32:40.513Z,0.30
2019-03-11T02:35:09.336Z,0.40
2019-03-11T02:37:38.072Z,0.20
2019-03-11T02:40:09.726Z,0.30
2019-03-11T02:42:38.442Z,0.40
2019-03-11T02:45:09.141Z,0.27
2019-03-11T02:47:37.836Z,0.37
2019-03-11T02:50:08.919Z,0.37
2019-03-11T02:52:37.810Z,0.20
2019-03-11T02:55:07.370Z,0.30
2019-03-11T02:57:36.157Z,0.30
2019-03-11T03:00:13.766Z,0.30
2019-03-11T03:02:44.126Z,0.30
2019-03-11T03:05:14.485Z,0.20
2019-03-11T03:07:43.238Z,0.27
2019-03-11T03:10:12.234Z,0.30
2019-03-11T03:12:41.010Z,0.20
2019-03-11T03:15:10.623Z,0.73
2019-03-11T03:17:39.357Z,0.33
2019-03-11T03:20:15.501Z,0.27
2019-03-11T03:22:44.254Z,0.50
2019-03-11T03:25:14.147Z,0.20
2019-03-11T03:27:42.925Z,0.20
2019-03-11T03:30:19.707Z,0.40
2019-03-11T03:32:48.584Z,0.20
2019-03-11T03:35:17.278Z,0.30
2019-03-11T03:37:46.007Z,0.20
2019-03-11T03:40:15.962Z,0.43
2019-03-11T03:42:44.786Z,0.40
2019-03-11T03:45:34.480Z,0.30
2019-03-11T03:48:03.198Z,0.40
2019-03-11T03:50:36.772Z,0.10
2019-03-11T03:53:05.694Z,0.20
2019-03-11T03:55:35.045Z,0.10
2019-03-11T03:58:03.872Z,0.30
2019-03-11T04:00:32.640Z,0.20
2019-03-11T04:03:01.363Z,0.20
2019-03-11T04:05:30.323Z,0.67
2019-03-11T04:07:59.105Z,0.20
2019-03-11T04:10:27.832Z,0.10
2019-03-11T04:12:56.585Z,0.20
2019-03-11T04:15:25.377Z,0.30
2019-03-11T04:17:54.198Z,0.10
2019-03-11T04:20:25.038Z,0.20
2019-03-11T04:22:53.853Z,0.20
2019-03-11T04:25:22.569Z,0.10
2019-03-11T04:27:51.427Z,0.17
2019-03-11T04:30:25.126Z,0.10
2019-03-11T04:32:53.855Z,0.30
2019-03-11T04:35:22.665Z,0.10
2019-03-11T04:37:51.483Z,0.30
2019-03-11T04:40:20.201Z,0.10
2019-03-11T04:42:48.943Z,0.20
2019-03-11T04:45:18.197Z,0.47
2019-03-11T04:47:47.013Z,0.10
2019-03-11T04:50:17.178Z,0.20
2019-03-11T04:52:45.868Z,0.20
2019-03-11T04:55:15.706Z,0.20
2019-03-11T04:57:50.008Z,0.20
2019-03-11T05:00:20.724Z,0.20
2019-03-11T05:02:49.460Z,0.17
2019-03-11T05:05:18.203Z,0.10
2019-03-11T05:07:46.926Z,0.10
2019-03-11T05:10:16.521Z,0.10
2019-03-11T05:12:45.297Z,0.10
2019-03-11T05:15:14.521Z,0.17
2019-03-11T05:17:43.446Z,0.20
2019-03-11T05:20:16.196Z,0.10
2019-03-11T05:22:44.988Z,0.10
2019-03-11T05:25:14.887Z,0.10
2019-03-11T05:27:43.822Z,0.13
2019-03-11T05:30:20.356Z,0.20
2019-03-11T05:32:49.116Z,0.10
2019-03-11T05:35:17.829Z,0.20
2019-03-11T05:37:46.544Z,0.10
2019-03-11T05:40:16.691Z,0.20
2019-03-11T05:42:45.410Z,0.13
2019-03-11T05:45:16.501Z,0.30
2019-03-11T05:47:45.249Z,0.30
2019-03-11T05:50:15.179Z,0.10
2019-03-11T05:52:44.203Z,0.10
2019-03-11T05:55:13.537Z,0.10
2019-03-11T05:57:42.260Z,0.23
2019-03-11T06:00:15.017Z,0.20
2019-03-11T06:02:47.090Z,0.20
2019-03-11T06:05:15.985Z,0.47
2019-03-11T06:07:44.772Z,0.30
2019-03-11T06:10:14.724Z,0.20
2019-03-11T06:12:43.449Z,0.40
2019-03-11T06:15:13.874Z,0.20
2019-03-11T06:17:42.957Z,0.20
2019-03-11T06:20:30.325Z,0.47
2019-03-11T06:23:00.101Z,0.40
2019-03-11T06:25:28.864Z,0.40
2019-03-11T06:27:57.577Z,0.30
2019-03-11T06:30:26.368Z,0.20
2019-03-11T06:32:55.085Z,0.30
2019-03-11T06:35:23.796Z,0.40
2019-03-11T06:37:52.545Z,0.30
2019-03-11T06:40:21.261Z,0.30
2019-03-11T06:42:49.981Z,0.23
2019-03-11T06:45:18.727Z,0.30
2019-03-11T06:47:47.494Z,0.40
2019-03-11T06:50:16.323Z,0.30
2019-03-11T06:52:45.181Z,0.30
2019-03-11T06:55:13.903Z,0.37
2019-03-11T06:57:42.625Z,0.40
2019-03-11T07:00:22.013Z,0.53
2019-03-11T07:02:50.738Z,0.37
2019-03-11T07:05:21.005Z,0.30
2019-03-11T07:07:50.157Z,0.30
2019-03-11T07:10:18.927Z,0.57
2019-03-11T07:12:47.703Z,0.40
2019-03-11T07:15:16.936Z,0.57
2019-03-11T07:17:45.886Z,0.40
2019-03-11T07:20:19.206Z,0.73
2019-03-11T07:22:47.989Z,0.40
2019-03-11T07:25:16.775Z,0.30
2019-03-11T07:27:45.498Z,0.40
2019-03-11T07:30:16.042Z,0.40
2019-03-11T07:32:44.861Z,0.60
2019-03-11T07:35:13.573Z,0.33
2019-03-11T07:37:42.318Z,0.70
2019-03-11T07:40:15.181Z,0.50
2019-03-11T07:42:43.997Z,0.40
2019-03-11T07:45:14.621Z,0.83
2019-03-11T07:47:43.338Z,0.47
2019-03-11T07:50:13.252Z,0.73
2019-03-11T07:52:42.006Z,0.40
2019-03-11T07:55:13.101Z,0.70
2019-03-11T07:57:41.808Z,0.90
2019-03-11T08:00:21.176Z,0.83
2019-03-11T08:02:49.895Z,0.50
2019-03-11T08:05:18.631Z,0.70
2019-03-11T08:07:47.411Z,0.50
2019-03-11T08:10:20.545Z,0.60
2019-03-11T08:12:49.262Z,0.83
2019-03-11T08:15:18.009Z,0.50
2019-03-11T08:17:46.819Z,0.60
2019-03-11T08:20:16.839Z,0.70
2019-03-11T08:22:45.583Z,0.50
2019-03-11T08:25:15.230Z,0.87
2019-03-11T08:27:44.017Z,0.53
2019-03-11T08:30:22.438Z,0.60
2019-03-11T08:32:51.254Z,0.60
2019-03-11T08:35:20.079Z,0.70
2019-03-11T08:37:48.819Z,0.40
2019-03-11T08:40:18.735Z,0.87
2019-03-11T08:42:47.465Z,0.77
2019-03-11T08:45:17.644Z,0.63
2019-03-11T08:47:46.360Z,0.77
2019-03-11T08:50:15.886Z,0.70
2019-03-11T08:52:44.625Z,0.60
2019-03-11T08:55:14.449Z,0.70
2019-03-11T08:57:43.183Z,0.50
2019-03-11T09:00:20.866Z,0.50
2019-03-11T09:02:49.701Z,0.67
2019-03-11T09:05:18.533Z,0.50
2019-03-11T09:07:47.268Z,0.30
2019-03-11T09:10:19.685Z,0.80
2019-03-11T09:12:48.421Z,0.67
2019-03-11T09:15:18.488Z,0.30
2019-03-11T09:17:47.211Z,0.30
2019-03-11T09:20:17.428Z,0.63
2019-03-11T09:22:46.165Z,0.33
2019-03-11T09:25:16.704Z,0.30
2019-03-11T09:27:45.589Z,0.33
2019-03-11T09:30:17.120Z,0.20
2019-03-11T09:32:45.841Z,0.30
2019-03-11T09:35:14.559Z,0.20
2019-03-11T09:37:43.312Z,0.53
2019-03-11T09:40:19.673Z,0.60
2019-03-11T09:42:48.412Z,0.57
2019-03-11T09:45:18.033Z,0.50
2019-03-11T09:47:46.954Z,0.90
2019-03-11T09:50:19.021Z,0.60
2019-03-11T09:52:47.754Z,0.50
2019-03-11T09:55:21.722Z,0.70
2019-03-11T09:57:50.473Z,0.60
2019-03-11T10:00:31.098Z,0.73
2019-03-11T10:02:59.841Z,0.60
2019-03-11T10:05:28.564Z,0.67
2019-03-11T10:07:57.395Z,0.63
2019-03-11T10:10:29.896Z,0.53
2019-03-11T10:12:58.623Z,0.77
2019-03-11T10:15:27.336Z,0.60
2019-03-11T10:17:56.093Z,0.30
2019-03-11T10:20:24.814Z,0.70
2019-03-11T10:22:53.546Z,0.33
2019-03-11T10:25:22.359Z,0.40
2019-03-11T10:27:51.069Z,0.40
2019-03-11T10:30:24.248Z,0.50
2019-03-11T10:32:53.090Z,1.17
2019-03-11T10:35:37.382Z,0.77
2019-03-11T10:37:52.538Z,0.60
2019-03-11T10:40:23.452Z,0.67
2019-03-11T10:42:52.167Z,1.00
2019-03-11T10:45:30.403Z,0.80
2019-03-11T10:47:51.382Z,0.80
2019-03-11T10:50:20.906Z,0.80
2019-03-11T10:52:49.721Z,0.73
2019-03-11T10:55:19.978Z,0.70
2019-03-11T10:57:48.781Z,1.20
2019-03-11T11:00:26.861Z,1.43
2019-03-11T11:02:55.604Z,0.73
2019-03-11T11:05:24.294Z,0.50
2019-03-11T11:07:53.233Z,0.70
2019-03-11T11:10:22.125Z,0.70
2019-03-11T11:12:50.845Z,1.37
2019-03-11T11:15:24.277Z,0.47
2019-03-11T11:17:53.591Z,1.30
2019-03-11T11:20:23.612Z,1.90
2019-03-11T11:22:53.449Z,0.70
2019-03-11T11:25:23.571Z,0.63
2019-03-11T11:27:52.285Z,1.37
2019-03-11T11:30:25.341Z,0.83
2019-03-11T11:32:54.263Z,0.73
2019-03-11T11:35:23.078Z,0.97
2019-03-11T11:37:52.054Z,1.07
2019-03-11T11:40:25.014Z,0.90
2019-03-11T11:42:54.045Z,1.47
2019-03-11T11:45:27.946Z,1.40
2019-03-11T11:47:56.669Z,1.00
2019-03-11T11:50:25.686Z,0.83
2019-03-11T11:52:55.738Z,0.80
2019-03-11T11:55:24.557Z,1.00
2019-03-11T11:57:53.445Z,1.10
2019-03-11T12:00:44.312Z,0.73
2019-03-11T12:03:13.051Z,0.90
2019-03-11T12:05:41.764Z,1.17
2019-03-11T12:08:10.547Z,0.77
2019-03-11T12:10:39.293Z,0.90
2019-03-11T12:13:08.021Z,1.07
2019-03-11T12:15:36.762Z,1.77
2019-03-11T12:18:05.682Z,1.33
2019-03-11T12:20:34.462Z,1.10
2019-03-11T12:23:03.269Z,0.67
2019-03-11T12:25:32.008Z,0.90
2019-03-11T12:28:00.948Z,0.80
2019-03-11T12:30:30.667Z,0.97
2019-03-11T12:33:00.812Z,1.03
2019-03-11T12:35:29.529Z,1.33
2019-03-11T12:37:58.554Z,0.60
2019-03-11T12:40:28.001Z,1.30
2019-03-11T12:42:56.726Z,0.90
2019-03-11T12:45:26.134Z,0.87
2019-03-11T12:47:54.879Z,0.80
2019-03-11T12:50:25.000Z,0.43
2019-03-11T12:52:53.720Z,0.60
2019-03-11T12:55:22.568Z,0.87
2019-03-11T12:57:51.299Z,0.70
2019-03-11T13:00:27.413Z,0.57
2019-03-11T13:02:56.126Z,1.03
2019-03-11T13:05:24.982Z,0.60
2019-03-11T13:07:53.705Z,0.80
2019-03-11T13:10:26.384Z,0.60
2019-03-11T13:12:55.237Z,0.70
2019-03-11T13:15:24.160Z,1.30
2019-03-11T13:17:52.865Z,0.80
2019-03-11T13:20:30.500Z,1.00
2019-03-11T13:22:59.620Z,0.30
2019-03-11T13:25:28.410Z,0.50
2019-03-11T13:27:57.159Z,0.70
2019-03-11T13:30:25.884Z,1.13
2019-03-11T13:32:54.588Z,0.77
2019-03-11T13:35:24.719Z,0.40
2019-03-11T13:37:53.739Z,0.70
2019-03-11T13:40:22.460Z,0.40
2019-03-11T13:42:51.394Z,0.30
2019-03-11T13:45:20.103Z,0.30
2019-03-11T13:47:48.813Z,0.33
2019-03-11T13:50:18.565Z,0.30
2019-03-11T13:52:47.587Z,0.37
2019-03-11T13:55:17.306Z,0.40
2019-03-11T13:57:46.549Z,0.70
2019-03-11T14:00:18.138Z,0.40
2019-03-11T14:02:46.938Z,0.97
2019-03-11T14:05:15.845Z,0.40
2019-03-11T14:07:45.264Z,0.50
2019-03-11T14:10:14.902Z,0.60
2019-03-11T14:12:43.710Z,0.23
2019-03-11T14:15:20.074Z,0.70
2019-03-11T14:17:49.085Z,0.20
2019-03-11T14:20:17.969Z,0.50
2019-03-11T14:22:46.749Z,0.50
2019-03-11T14:25:16.350Z,0.70
2019-03-11T14:27:45.057Z,0.57
2019-03-11T14:30:18.894Z,0.80
2019-03-11T14:32:47.617Z,0.23
2019-03-11T14:35:16.366Z,0.37
2019-03-11T14:37:45.089Z,0.90
2019-03-11T14:40:15.133Z,0.60
2019-03-11T14:42:43.887Z,0.30
2019-03-11T14:45:17.901Z,1.33
2019-03-11T14:47:46.617Z,0.40
2019-03-11T14:50:16.043Z,0.43
2019-03-11T14:52:44.776Z,0.63
2019-03-11T14:55:14.405Z,0.60
2019-03-11T14:57:43.533Z,0.60
2019-03-11T15:00:14.745Z,0.33
2019-03-11T15:02:43.469Z,0.40
2019-03-11T15:05:12.194Z,0.40
2019-03-11T15:07:40.931Z,0.70
2019-03-11T15:10:11.659Z,0.30
2019-03-11T15:12:40.424Z,0.50
2019-03-11T15:15:15.304Z,0.40
2019-03-11T15:17:44.073Z,0.40
2019-03-11T15:20:13.493Z,0.37
2019-03-11T15:22:42.236Z,0.47
2019-03-11T15:25:12.657Z,0.50
2019-03-11T15:27:41.666Z,0.57
2019-03-11T15:30:21.304Z,0.80
2019-03-11T15:32:50.026Z,0.30
2019-03-11T15:35:19.336Z,0.30
2019-03-11T15:37:48.084Z,0.50
2019-03-11T15:40:17.803Z,0.43
2019-03-11T15:42:46.839Z,0.70
2019-03-11T15:45:19.432Z,0.63
2019-03-11T15:47:48.146Z,0.57
2019-03-11T15:50:31.837Z,0.70
2019-03-11T15:53:00.630Z,0.80
2019-03-11T15:55:29.453Z,0.60
2019-03-11T15:57:58.211Z,1.60
2019-03-11T16:00:26.933Z,1.10
2019-03-11T16:02:55.657Z,0.83
2019-03-11T16:05:25.302Z,0.90
2019-03-11T16:07:54.195Z,1.57
2019-03-11T16:10:23.316Z,0.67
2019-03-11T16:12:52.069Z,5.17
2019-03-11T16:15:21.209Z,1.50
2019-03-11T16:17:49.924Z,1.20
2019-03-11T16:20:20.137Z,1.67
2019-03-11T16:22:49.129Z,1.33
2019-03-11T16:25:18.143Z,1.60
2019-03-11T16:27:46.886Z,1.63
2019-03-11T16:30:21.500Z,2.07
2019-03-11T16:32:59.350Z,1.20
2019-03-11T16:35:22.229Z,1.37
2019-03-11T16:37:50.964Z,1.10
2019-03-11T16:40:19.717Z,1.30
2019-03-11T16:42:48.474Z,1.43
2019-03-11T16:45:18.874Z,1.10
2019-03-11T16:47:48.395Z,1.20
2019-03-11T16:50:22.337Z,1.27
2019-03-11T16:52:51.054Z,1.27
2019-03-11T16:55:41.426Z,1.90
2019-03-11T16:58:10.227Z,1.30
2019-03-11T17:00:40.792Z,0.90
2019-03-11T17:03:09.756Z,2.17
2019-03-11T17:05:38.481Z,1.07
2019-03-11T17:08:07.206Z,1.23
2019-03-11T17:10:35.972Z,1.53
2019-03-11T17:13:04.882Z,1.40
2019-03-11T17:15:33.604Z,0.97
2019-03-11T17:18:02.354Z,1.10
2019-03-11T17:20:31.137Z,1.30
2019-03-11T17:22:59.853Z,1.17
2019-03-11T17:25:28.678Z,1.77
2019-03-11T17:27:57.515Z,1.47
2019-03-11T17:30:27.202Z,1.80
2019-03-11T17:32:55.945Z,1.10
2019-03-11T17:35:24.664Z,2.03
2019-03-11T17:37:53.489Z,1.77
2019-03-11T17:40:24.369Z,1.53
2019-03-11T17:42:53.301Z,2.07
2019-03-11T17:45:22.147Z,1.83
2019-03-11T17:47:50.916Z,1.87
2019-03-11T17:50:23.430Z,1.07
2019-03-11T17:52:52.217Z,1.47
2019-03-11T17:55:21.378Z,1.50
2019-03-11T17:57:50.392Z,1.00
2019-03-11T18:00:27.720Z,1.63
2019-03-11T18:02:56.542Z,1.80
2019-03-11T18:05:25.367Z,1.50
2019-03-11T18:07:54.134Z,1.77
2019-03-11T18:10:22.905Z,1.60
2019-03-11T18:12:51.663Z,1.20
2019-03-11T18:15:20.377Z,1.97
2019-03-11T18:17:49.173Z,1.73
2019-03-11T18:20:19.901Z,1.63
2019-03-11T18:22:48.826Z,2.47
2019-03-11T18:25:18.549Z,2.83
2019-03-11T18:27:47.318Z,1.97
2019-03-11T18:30:26.441Z,2.67
2019-03-11T18:32:55.218Z,2.33
2019-03-11T18:35:23.999Z,1.73
2019-03-11T18:38:03.482Z,2.97
2019-03-11T18:40:23.175Z,2.40
2019-03-11T18:42:51.941Z,3.60
2019-03-11T18:45:20.804Z,3.33
2019-03-11T18:47:49.604Z,2.93
2019-03-11T18:50:25.118Z,3.47
2019-03-11T18:52:54.060Z,3.57
2019-03-11T18:55:22.954Z,3.57
2019-03-11T18:57:51.676Z,3.60
2019-03-11T19:00:21.523Z,2.43
2019-03-11T19:02:50.444Z,3.40
2019-03-11T19:05:25.855Z,2.53
2019-03-11T19:07:55.361Z,2.57
2019-03-11T19:10:24.417Z,2.43
2019-03-11T19:12:53.135Z,3.03
2019-03-11T19:15:25.711Z,4.13
2019-03-11T19:17:54.420Z,3.63
2019-03-11T19:20:26.468Z,2.53
2019-03-11T19:22:55.178Z,3.17
2019-03-11T19:25:23.966Z,2.57
2019-03-11T19:27:52.730Z,2.73
2019-03-11T19:30:22.989Z,2.20
2019-03-11T19:32:51.807Z,2.20
2019-03-11T19:35:20.876Z,2.60
2019-03-11T19:37:49.749Z,2.97
2019-03-11T19:40:19.844Z,3.27
2019-03-11T19:42:48.940Z,2.47
2019-03-11T19:45:18.261Z,2.40
2019-03-11T19:47:47.041Z,2.27
2019-03-11T19:50:17.551Z,1.60
2019-03-11T19:52:57.856Z,2.10
2019-03-11T19:55:16.780Z,1.93
2019-03-11T19:57:45.653Z,2.57
2019-03-11T20:00:24.905Z,1.80
2019-03-11T20:02:53.632Z,2.10
2019-03-11T20:05:33.409Z,2.20
2019-03-11T20:08:02.173Z,2.23
2019-03-11T20:10:31.311Z,2.33
2019-03-11T20:13:00.122Z,2.90
2019-03-11T20:15:28.824Z,2.93
2019-03-11T20:17:57.512Z,2.40
2019-03-11T20:20:26.363Z,2.30
2019-03-11T20:22:55.151Z,3.00
2019-03-11T20:25:26.514Z,2.50
2019-03-11T20:27:56.437Z,2.83
2019-03-11T20:30:25.398Z,3.10
2019-03-11T20:32:54.125Z,2.53
2019-03-11T20:35:22.981Z,1.97
2019-03-11T20:37:51.779Z,2.37
2019-03-11T20:40:20.682Z,2.40
2019-03-11T20:42:49.436Z,1.93
2019-03-11T20:45:19.521Z,2.27
2019-03-11T20:47:48.200Z,2.17
2019-03-11T20:50:17.952Z,2.10
2019-03-11T20:52:46.698Z,2.80
2019-03-11T20:55:17.729Z,2.80
2019-03-11T20:57:46.847Z,3.23
2019-03-11T21:00:22.273Z,3.13
2019-03-11T21:02:51.160Z,2.03
2019-03-11T21:05:35.207Z,2.80
2019-03-11T21:08:02.376Z,2.13
2019-03-11T21:10:31.066Z,2.40
2019-03-11T21:12:59.793Z,2.07
2019-03-11T21:15:28.562Z,4.00
2019-03-11T21:17:57.372Z,2.97
2019-03-11T21:20:26.455Z,2.80
2019-03-11T21:22:55.257Z,2.23
2019-03-11T21:25:23.981Z,2.10
2019-03-11T21:27:52.683Z,2.10
2019-03-11T21:30:25.900Z,2.60
2019-03-11T21:32:54.785Z,2.70
2019-03-11T21:35:23.577Z,2.50
2019-03-11T21:37:52.369Z,2.43
2019-03-11T21:40:25.009Z,3.43
2019-03-11T21:42:53.752Z,3.30
2019-03-11T21:45:33.550Z,3.03
2019-03-11T21:47:53.111Z,2.87
2019-03-11T21:50:29.038Z,4.40
2019-03-11T21:52:58.189Z,4.97
2019-03-11T21:55:26.842Z,3.00
2019-03-11T21:57:55.737Z,2.70
2019-03-11T22:00:33.933Z,2.87
2019-03-11T22:02:55.265Z,3.47
2019-03-11T22:05:24.090Z,3.63
2019-03-11T22:07:52.819Z,3.37
2019-03-11T22:10:21.834Z,2.57
2019-03-11T22:12:50.594Z,4.10
2019-03-11T22:15:24.961Z,3.20
2019-03-11T22:17:53.683Z,3.63
2019-03-11T22:20:22.441Z,3.57
2019-03-11T22:22:51.180Z,3.40
2019-03-11T22:25:20.798Z,3.17
2019-03-11T22:27:49.637Z,4.33
2019-03-11T22:30:22.985Z,4.47
2019-03-11T22:32:51.886Z,3.43
2019-03-11T22:35:20.627Z,3.53
2019-03-11T22:37:49.354Z,3.33
2019-03-11T22:40:19.178Z,3.87
2019-03-11T22:42:47.994Z,3.47
2019-03-11T22:45:20.477Z,3.43
2019-03-11T22:47:50.645Z,4.20
2019-03-11T22:50:19.535Z,3.00
2019-03-11T22:52:48.369Z,4.40
2019-03-11T22:55:18.637Z,2.70
2019-03-11T22:57:47.650Z,5.03
2019-03-11T23:00:19.358Z,3.70
2019-03-11T23:02:48.193Z,4.23
2019-03-11T23:05:17.013Z,5.00
2019-03-11T23:07:45.746Z,3.47
2019-03-11T23:10:14.787Z,3.93
2019-03-11T23:12:43.508Z,4.23
2019-03-11T23:15:12.230Z,4.47
2019-03-11T23:17:41.049Z,3.20
2019-03-11T23:20:09.841Z,5.10
2019-03-11T23:22:38.570Z,3.60
2019-03-11T23:25:08.249Z,4.57
2019-03-11T23:27:36.965Z,4.07
2019-03-11T23:30:08.705Z,4.07
2019-03-11T23:32:58.182Z,3.60
2019-03-11T23:35:26.941Z,5.10
2019-03-11T23:37:57.600Z,4.83
2019-03-11T23:40:26.033Z,3.87
2019-03-11T23:42:54.781Z,4.77
2019-03-11T23:45:23.501Z,4.50
2019-03-11T23:47:52.231Z,4.33
2019-03-11T23:50:20.985Z,5.40
2019-03-11T23:52:49.704Z,4.00
2019-03-11T23:55:18.429Z,5.20
2019-03-11T23:57:47.250Z,2.93
